Time;durP1;ratioP1;P1;durP2;ratioP2;P2;SDS_P1;SDS_P2;PMS_P1;PMS_P2;Temp;Humidity;BMP_temperature;BMP_pressure;BME280_temperature;BME280_humidity;BME280_pressure;Samples;Min_cycle;Max_cycle;Signal;HPM_P1;HPM_P2
2021/01/28 00:00:39;;;;;;;40.90;22.00;;;7.30;99.90;;;;;;5041916;28;20421;-82
2021/01/28 00:03:05;;;;;;;43.97;23.60;;;7.50;99.90;;;;;;5054521;28;20443;-82
2021/01/28 00:05:33;;;;;;;39.67;22.07;;;7.30;99.90;;;;;;5075942;28;20419;-82
2021/01/28 00:08:00;;;;;;;40.90;22.13;;;7.40;99.90;;;;;;5080773;28;20534;-82
2021/01/28 00:10:26;;;;;;;42.20;23.07;;;7.40;99.90;;;;;;5060160;28;20515;-81
2021/01/28 00:12:52;;;;;;;46.17;22.60;;;7.20;99.90;;;;;;5075868;28;20423;-81
2021/01/28 00:15:20;;;;;;;43.27;21.40;;;7.20;99.90;;;;;;5059783;28;20459;-81
2021/01/28 00:17:46;;;;;;;49.77;23.53;;;7.00;99.90;;;;;;5074108;28;20219;-81
2021/01/28 00:20:14;;;;;;;44.80;21.70;;;7.30;99.90;;;;;;5081993;28;20431;-82
2021/01/28 00:22:39;;;;;;;45.67;23.17;;;7.30;99.90;;;;;;5065682;28;20186;-82
2021/01/28 00:25:06;;;;;;;49.90;22.90;;;7.10;99.90;;;;;;5047208;28;20952;-82
2021/01/28 00:27:32;;;;;;;47.20;22.63;;;7.10;99.90;;;;;;5075708;28;20205;-80
2021/01/28 00:29:57;;;;;;;47.97;25.23;;;7.30;99.90;;;;;;5046435;28;20438;-81
2021/01/28 00:32:26;;;;;;;54.20;26.13;;;6.90;99.90;;;;;;5062202;28;20247;-80
2021/01/28 00:34:52;;;;;;;45.63;24.37;;;6.90;99.90;;;;;;5059063;28;20201;-80
2021/01/28 00:37:17;;;;;;;55.20;23.60;;;7.00;99.90;;;;;;5069753;28;20984;-82
2021/01/28 00:39:43;;;;;;;49.67;24.00;;;6.90;99.90;;;;;;5063600;28;20209;-80
2021/01/28 00:42:09;;;;;;;58.73;26.20;;;6.70;99.90;;;;;;5048038;28;20217;-80
2021/01/28 00:44:34;;;;;;;56.83;24.50;;;6.90;99.90;;;;;;5062981;28;20288;-81
2021/01/28 00:47:00;;;;;;;56.77;24.13;;;6.70;99.90;;;;;;5080333;28;20368;-80
2021/01/28 00:49:26;;;;;;;52.20;27.53;;;6.90;99.90;;;;;;5042773;28;20717;-81
2021/01/28 00:51:51;;;;;;;70.50;25.40;;;7.00;99.90;;;;;;5060097;28;20211;-81
2021/01/28 00:54:17;;;;;;;50.00;25.17;;;6.80;99.90;;;;;;5064573;28;20662;-80
2021/01/28 00:56:43;;;;;;;49.13;25.10;;;6.90;99.90;;;;;;5025550;28;20232;-82
2021/01/28 00:59:08;;;;;;;44.03;22.50;;;7.10;99.90;;;;;;5064599;28;20204;-82
2021/01/28 01:01:34;;;;;;;58.90;24.90;;;7.00;99.90;;;;;;5063150;28;20445;-81
2021/01/28 01:04:00;;;;;;;46.90;24.93;;;7.00;99.90;;;;;;5068785;28;20275;-81
2021/01/28 01:06:25;;;;;;;41.90;21.50;;;7.20;99.90;;;;;;5060847;28;20186;-82
2021/01/28 01:08:51;;;;;;;52.83;24.80;;;6.90;99.90;;;;;;5081302;28;20793;-80
2021/01/28 01:11:17;;;;;;;54.40;22.80;;;6.90;99.90;;;;;;5079566;28;20719;-82
2021/01/28 01:13:42;;;;;;;43.77;24.63;;;6.60;99.90;;;;;;5074032;28;20276;-81
2021/01/28 01:16:11;;;;;;;50.90;24.70;;;6.70;99.90;;;;;;5060274;28;20200;-82
2021/01/28 01:18:37;;;;;;;55.33;24.30;;;6.90;99.90;;;;;;5068275;28;20217;-82
2021/01/28 01:21:05;;;;;;;47.87;23.30;;;6.80;99.90;;;;;;5064068;28;20916;-80
2021/01/28 01:23:30;;;;;;;53.47;26.53;;;6.80;99.90;;;;;;5049240;28;20408;-80
2021/01/28 01:25:58;;;;;;;45.63;22.13;;;6.60;99.90;;;;;;5052837;28;20434;-83
2021/01/28 01:28:24;;;;;;;43.90;23.43;;;6.70;99.90;;;;;;5081993;28;20490;-81
2021/01/28 01:30:50;;;;;;;44.07;23.03;;;6.90;99.90;;;;;;5081176;28;20420;-81
2021/01/28 01:33:15;;;;;;;42.50;23.00;;;6.60;99.90;;;;;;5082140;28;20449;-82
2021/01/28 01:35:41;;;;;;;44.37;22.17;;;6.90;99.90;;;;;;5074423;28;20602;-83
2021/01/28 01:38:08;;;;;;;46.87;23.70;;;6.70;99.90;;;;;;5080191;28;20674;-80
2021/01/28 01:40:35;;;;;;;37.83;21.57;;;6.80;99.90;;;;;;5080531;28;20185;-80
2021/01/28 01:43:01;;;;;;;46.70;22.03;;;6.90;99.90;;;;;;5079323;28;20396;-82
2021/01/28 01:45:33;;;;;;;44.43;23.13;;;6.70;99.90;;;;;;5062366;28;20419;-80
2021/01/28 01:48:10;;;;;;;48.30;23.53;;;7.10;99.90;;;;;;5079998;28;20474;-81
2021/01/28 01:50:45;;;;;;;36.80;20.43;;;6.90;99.90;;;;;;5074171;28;21020;-81
2021/01/28 01:53:21;;;;;;;47.53;21.73;;;7.00;99.90;;;;;;5083507;28;20435;-82
2021/01/28 01:55:53;;;;;;;46.50;22.43;;;6.90;99.90;;;;;;5070111;28;20430;-81
2021/01/28 01:58:53;;;;;;;37.93;21.93;;;6.80;99.90;;;;;;5067645;28;20487;-81
2021/01/28 02:01:23;;;;;;;40.23;20.40;;;6.90;99.90;;;;;;5061193;28;20449;-82
2021/01/28 02:03:52;;;;;;;38.43;20.37;;;7.00;99.90;;;;;;5077159;28;20443;-81
2021/01/28 02:06:23;;;;;;;38.53;21.10;;;7.00;99.90;;;;;;5093410;28;20407;-82
2021/01/28 02:08:52;;;;;;;36.57;19.20;;;7.00;99.90;;;;;;5098129;28;20452;-81
2021/01/28 02:11:18;;;;;;;42.30;21.40;;;7.20;99.90;;;;;;5064757;28;20431;-79
2021/01/28 02:13:46;;;;;;;36.47;20.50;;;7.20;99.90;;;;;;5064598;28;20419;-81
2021/01/28 02:16:13;;;;;;;34.60;19.87;;;7.10;99.90;;;;;;5075120;28;20442;-82
2021/01/28 02:18:41;;;;;;;42.37;21.70;;;6.90;99.90;;;;;;5077891;28;20467;-80
2021/01/28 02:21:16;;;;;;;35.20;19.73;;;6.80;99.90;;;;;;5066616;28;20420;-80
2021/01/28 02:23:57;;;;;;;37.40;19.40;;;7.00;99.90;;;;;;5076587;28;20403;-81
2021/01/28 02:26:24;;;;;;;36.10;19.37;;;7.10;99.90;;;;;;5057996;28;20423;-80
2021/01/28 02:28:50;;;;;;;46.87;20.57;;;7.10;99.90;;;;;;5075073;28;20837;-80
2021/01/28 02:31:17;;;;;;;32.90;18.83;;;6.90;99.90;;;;;;5057858;28;20416;-81
2021/01/28 02:33:59;;;;;;;34.50;18.50;;;6.90;99.90;;;;;;5062110;28;20554;-82
2021/01/28 02:36:30;;;;;;;49.83;21.90;;;6.80;99.90;;;;;;5072448;28;20447;-82
2021/01/28 02:38:56;;;;;;;34.30;18.70;;;6.90;99.90;;;;;;5076788;28;20457;-81
2021/01/28 02:41:22;;;;;;;32.43;18.80;;;6.90;99.90;;;;;;5054580;28;21090;-81
2021/01/28 02:43:48;;;;;;;38.53;18.57;;;6.90;99.90;;;;;;5068394;28;20578;-80
2021/01/28 02:46:16;;;;;;;30.23;18.07;;;7.10;99.90;;;;;;5033778;28;20399;-81
2021/01/28 02:48:41;;;;;;;39.20;19.37;;;7.00;99.90;;;;;;5067916;28;20194;-83
2021/01/28 02:51:09;;;;;;;36.37;18.10;;;6.90;99.90;;;;;;5068630;28;20442;-81
2021/01/28 02:53:47;;;;;;;40.90;17.77;;;6.60;99.90;;;;;;5026873;28;20193;-81
2021/01/28 02:56:13;;;;;;;31.40;18.00;;;6.80;99.90;;;;;;5065083;28;20951;-82
2021/01/28 02:58:39;;;;;;;30.97;16.60;;;7.10;99.90;;;;;;5066628;28;20462;-81
2021/01/28 03:01:08;;;;;;;31.73;17.73;;;7.00;99.90;;;;;;5055456;28;20444;-80
2021/01/28 03:03:33;;;;;;;35.83;15.90;;;7.20;99.90;;;;;;5091274;28;20181;-80
2021/01/28 03:05:59;;;;;;;28.93;16.60;;;7.00;99.90;;;;;;5064103;28;20445;-82
2021/01/28 03:08:26;;;;;;;31.87;17.27;;;7.00;99.90;;;;;;5071340;28;20205;-80
2021/01/28 03:10:53;;;;;;;32.97;16.67;;;6.90;99.90;;;;;;5077118;28;20268;-80
2021/01/28 03:13:19;;;;;;;33.17;18.87;;;6.80;99.90;;;;;;5057334;28;20453;-80
2021/01/28 03:15:45;;;;;;;35.60;18.50;;;6.80;99.90;;;;;;5058481;28;20936;-81
2021/01/28 03:18:12;;;;;;;30.87;17.10;;;6.80;99.90;;;;;;5071071;28;20468;-80
2021/01/28 03:20:38;;;;;;;32.33;18.03;;;7.00;99.90;;;;;;5046187;28;20484;-82
2021/01/28 03:23:04;;;;;;;31.80;18.03;;;6.90;99.90;;;;;;5080384;28;20430;-80
2021/01/28 03:25:30;;;;;;;31.40;17.53;;;6.80;99.90;;;;;;5080583;28;20420;-81
2021/01/28 03:27:57;;;;;;;35.27;17.17;;;6.90;99.90;;;;;;5073905;28;20475;-81
2021/01/28 03:30:30;;;;;;;30.73;16.67;;;7.10;99.90;;;;;;5072055;28;20413;-83
2021/01/28 03:32:57;;;;;;;29.27;17.57;;;6.80;99.90;;;;;;5065398;28;20454;-82
2021/01/28 03:35:23;;;;;;;31.60;17.20;;;6.80;99.90;;;;;;5076320;28;20437;-82
2021/01/28 03:37:49;;;;;;;29.90;16.70;;;7.00;99.90;;;;;;5059618;28;20471;-82
2021/01/28 03:40:17;;;;;;;30.67;18.03;;;7.00;99.90;;;;;;5023430;28;20428;-82
2021/01/28 03:42:42;;;;;;;28.90;17.60;;;6.80;99.90;;;;;;5065528;28;20411;-80
2021/01/28 03:45:09;;;;;;;33.40;17.13;;;6.80;99.90;;;;;;5073661;28;20468;-80
2021/01/28 03:47:35;;;;;;;31.63;17.70;;;6.90;99.90;;;;;;5056360;28;20531;-80
2021/01/28 03:50:01;;;;;;;30.70;16.83;;;6.70;99.90;;;;;;5048455;28;21220;-80
2021/01/28 03:52:26;;;;;;;28.17;15.03;;;6.70;99.90;;;;;;5034981;28;20185;-80
2021/01/28 03:54:52;;;;;;;29.57;15.73;;;7.00;99.90;;;;;;5052498;28;20424;-80
2021/01/28 03:57:18;;;;;;;26.77;14.70;;;7.00;99.90;;;;;;5063849;28;20205;-81
2021/01/28 03:59:44;;;;;;;27.23;15.13;;;6.80;99.90;;;;;;5044881;28;20189;-81
2021/01/28 04:02:09;;;;;;;26.80;15.10;;;7.00;99.90;;;;;;5025563;28;20182;-80
2021/01/28 04:04:35;;;;;;;27.40;15.10;;;7.00;99.90;;;;;;5027744;28;20448;-81
2021/01/28 04:07:01;;;;;;;29.93;15.80;;;6.90;99.90;;;;;;5061653;28;20192;-81
2021/01/28 04:09:26;;;;;;;28.40;16.00;;;6.90;99.90;;;;;;5075341;28;20302;-80
2021/01/28 04:11:52;;;;;;;24.80;13.83;;;6.90;99.90;;;;;;5079026;28;20185;-82
2021/01/28 04:14:18;;;;;;;26.00;15.10;;;7.00;99.90;;;;;;5056813;28;20209;-82
2021/01/28 04:16:44;;;;;;;28.50;15.97;;;7.00;99.90;;;;;;5059757;28;20489;-81
2021/01/28 04:19:09;;;;;;;32.07;16.13;;;6.90;99.90;;;;;;5078496;28;20201;-80
2021/01/28 04:21:36;;;;;;;30.43;17.37;;;6.90;99.90;;;;;;5070925;28;20271;-80
2021/01/28 04:24:02;;;;;;;34.37;17.60;;;6.70;99.90;;;;;;5060169;28;20824;-81
2021/01/28 04:26:28;;;;;;;30.10;16.67;;;6.90;99.90;;;;;;5061687;28;20423;-81
2021/01/28 04:28:55;;;;;;;29.67;15.67;;;6.80;99.90;;;;;;5081325;28;20527;-81
2021/01/28 04:31:21;;;;;;;30.23;14.40;;;7.00;99.90;;;;;;5067556;28;20785;-80
2021/01/28 04:33:47;;;;;;;26.53;15.20;;;7.00;99.90;;;;;;5082064;28;20900;-82
2021/01/28 04:36:13;;;;;;;30.33;17.07;;;6.70;99.90;;;;;;5071785;28;20492;-82
2021/01/28 04:38:39;;;;;;;30.23;15.67;;;6.80;99.90;;;;;;5079181;28;20469;-82
2021/01/28 04:41:32;;;;;;;26.70;15.37;;;7.00;99.90;;;;;;5087906;28;20415;-82
2021/01/28 04:44:00;;;;;;;25.77;14.93;;;7.00;99.90;;;;;;5079923;28;20415;-80
2021/01/28 04:46:31;;;;;;;25.90;14.90;;;6.70;99.90;;;;;;5076403;28;20796;-82
2021/01/28 04:48:58;;;;;;;29.50;14.57;;;6.70;99.90;;;;;;5063933;28;20444;-82
2021/01/28 04:51:28;;;;;;;24.43;13.77;;;6.70;99.90;;;;;;5031520;28;20436;-80
2021/01/28 04:53:57;;;;;;;25.30;15.87;;;6.70;99.90;;;;;;5075989;28;20491;-79
2021/01/28 04:56:26;;;;;;;26.37;15.10;;;6.70;99.90;;;;;;5067557;28;20406;-82
2021/01/28 04:58:56;;;;;;;23.97;13.60;;;6.40;99.90;;;;;;5076500;28;20439;-80
2021/01/28 05:01:29;;;;;;;24.30;14.57;;;6.50;99.90;;;;;;5075667;28;20430;-80
2021/01/28 05:03:57;;;;;;;27.43;15.30;;;6.30;99.90;;;;;;5054645;28;20896;-82
2021/01/28 05:06:23;;;;;;;30.87;15.50;;;6.60;99.90;;;;;;5066825;28;20454;-81
2021/01/28 05:08:49;;;;;;;26.20;14.13;;;6.40;99.90;;;;;;5064640;28;20858;-80
2021/01/28 05:11:20;;;;;;;21.90;13.20;;;6.40;99.90;;;;;;5076283;28;20453;-80
2021/01/28 05:13:46;;;;;;;20.67;12.27;;;6.20;99.90;;;;;;5063616;28;20503;-80
2021/01/28 05:16:46;;;;;;;28.20;16.80;;;6.10;99.90;;;;;;5039016;28;20483;-80
2021/01/28 05:19:34;;;;;;;22.93;13.23;;;6.30;99.90;;;;;;5065023;28;20264;-81
2021/01/28 05:22:13;;;;;;;19.40;11.83;;;6.30;99.90;;;;;;5062530;28;20947;-80
2021/01/28 05:24:48;;;;;;;22.03;12.60;;;6.30;99.90;;;;;;5073492;28;20403;-79
2021/01/28 05:27:35;;;;;;;21.20;12.90;;;6.30;99.90;;;;;;5077521;28;20505;-80
2021/01/28 05:30:06;;;;;;;15.77;11.00;;;6.00;99.90;;;;;;5073976;28;20422;-81
2021/01/28 05:32:45;;;;;;;17.80;10.90;;;5.90;99.90;;;;;;5061831;28;20403;-80
2021/01/28 05:35:32;;;;;;;17.07;11.50;;;5.90;99.90;;;;;;5078714;28;20451;-82
2021/01/28 05:38:16;;;;;;;18.63;11.30;;;6.00;99.90;;;;;;5073208;28;20486;-79
2021/01/28 05:40:53;;;;;;;17.80;12.47;;;6.00;99.90;;;;;;5074613;28;21054;-80
2021/01/28 05:43:45;;;;;;;25.90;13.00;;;5.90;99.90;;;;;;5061849;28;20431;-81
2021/01/28 05:46:22;;;;;;;17.73;11.20;;;6.00;99.90;;;;;;5073382;28;20406;-82
2021/01/28 05:49:08;;;;;;;18.33;10.60;;;6.00;99.90;;;;;;5080950;28;20816;-80
2021/01/28 05:51:45;;;;;;;16.40;11.07;;;5.80;99.90;;;;;;5073873;28;20522;-82
2021/01/28 05:54:18;;;;;;;18.23;10.40;;;5.50;99.90;;;;;;5077017;28;20450;-82
2021/01/28 05:56:56;;;;;;;13.97;9.60;;;5.70;99.90;;;;;;5065750;28;20440;-80
2021/01/28 06:00:03;;;;;;;14.80;10.00;;;5.80;99.90;;;;;;5077697;28;20731;-81
2021/01/28 06:02:40;;;;;;;11.73;7.73;;;5.60;99.90;;;;;;5068069;28;20411;-82
2021/01/28 06:05:38;;;;;;;14.10;8.90;;;5.50;99.90;;;;;;5062254;28;20422;-80
2021/01/28 06:08:18;;;;;;;14.43;9.63;;;5.70;99.90;;;;;;4990405;28;20896;-80
2021/01/28 06:11:08;;;;;;;13.97;10.27;;;5.50;99.90;;;;;;5057753;28;20408;-80
2021/01/28 06:14:04;;;;;;;11.97;8.83;;;5.60;99.90;;;;;;5071752;28;20465;-80
2021/01/28 06:17:03;;;;;;;11.50;7.80;;;5.60;99.90;;;;;;5058329;28;20485;-81
2021/01/28 06:19:42;;;;;;;11.80;7.83;;;5.50;99.90;;;;;;5077617;28;20444;-80
2021/01/28 06:22:17;;;;;;;11.00;7.80;;;5.70;99.90;;;;;;5081343;28;20485;-80
2021/01/28 06:24:58;;;;;;;11.43;7.50;;;5.60;99.90;;;;;;5056982;28;20414;-80
2021/01/28 06:27:43;;;;;;;11.67;8.10;;;5.60;99.90;;;;;;5075411;28;20427;-80
2021/01/28 06:30:14;;;;;;;9.57;6.97;;;5.40;99.90;;;;;;5063771;28;20972;-80
2021/01/28 06:33:02;;;;;;;11.40;7.70;;;5.50;99.90;;;;;;5086225;28;20436;-80
2021/01/28 06:35:27;;;;;;;8.10;6.90;;;5.50;99.90;;;;;;5064158;28;20402;-80
2021/01/28 06:38:17;;;;;;;11.13;7.70;;;5.60;99.90;;;;;;5063505;28;20463;-81
2021/01/28 06:40:50;;;;;;;9.20;7.17;;;5.50;99.90;;;;;;5062185;28;20265;-80
2021/01/28 06:43:32;;;;;;;9.50;6.90;;;5.50;99.90;;;;;;5054307;28;20486;-80
2021/01/28 06:46:01;;;;;;;10.00;6.17;;;5.40;99.90;;;;;;5068304;28;20413;-80
2021/01/28 06:48:43;;;;;;;8.37;5.93;;;5.40;99.90;;;;;;5057420;28;20498;-80
2021/01/28 06:51:38;;;;;;;10.30;7.10;;;5.50;99.90;;;;;;5053541;28;20451;-80
2021/01/28 06:54:21;;;;;;;8.60;6.20;;;5.50;99.90;;;;;;5047877;28;20462;-80
2021/01/28 06:57:00;;;;;;;8.10;5.63;;;5.50;99.90;;;;;;5050153;28;20494;-80
2021/01/28 06:59:31;;;;;;;6.93;6.03;;;5.40;99.90;;;;;;5067807;28;20463;-80
2021/01/28 07:02:30;;;;;;;6.33;5.07;;;5.40;99.90;;;;;;5062210;28;20451;-80
2021/01/28 07:05:11;;;;;;;7.33;5.27;;;5.50;99.90;;;;;;5058185;28;21108;-80
2021/01/28 07:07:56;;;;;;;7.90;5.20;;;5.40;99.90;;;;;;5064508;28;20447;-80
2021/01/28 07:10:30;;;;;;;9.50;5.43;;;5.70;99.90;;;;;;5068047;28;20427;-81
2021/01/28 07:12:56;;;;;;;7.57;5.27;;;5.60;99.90;;;;;;5058188;28;20843;-80
2021/01/28 07:15:25;;;;;;;6.10;4.80;;;5.50;99.90;;;;;;5054513;28;20436;-82
2021/01/28 07:17:59;;;;;;;6.00;4.90;;;5.50;99.90;;;;;;5028647;28;20875;-82
2021/01/28 07:20:38;;;;;;;7.43;5.03;;;5.50;99.90;;;;;;5063188;28;21378;-80
2021/01/28 07:23:31;;;;;;;6.13;5.13;;;5.60;99.90;;;;;;5065870;28;20434;-81
2021/01/28 07:26:18;;;;;;;7.50;5.23;;;5.40;99.90;;;;;;5055368;28;20435;-80
2021/01/28 07:28:46;;;;;;;6.63;4.47;;;5.50;99.90;;;;;;5066328;28;20850;-82
2021/01/28 07:31:21;;;;;;;6.80;4.63;;;5.50;99.90;;;;;;5072756;28;20427;-82
2021/01/28 07:34:04;;;;;;;8.10;4.70;;;5.60;99.90;;;;;;5071302;28;20414;-81
2021/01/28 07:36:30;;;;;;;5.80;4.57;;;5.50;99.90;;;;;;5059371;28;20430;-79
2021/01/28 07:39:00;;;;;;;6.67;5.00;;;5.50;99.90;;;;;;5060332;28;20417;-80
2021/01/28 07:41:39;;;;;;;5.90;4.53;;;5.60;99.90;;;;;;5056203;28;20196;-80
2021/01/28 07:44:34;;;;;;;6.00;4.60;;;5.60;99.90;;;;;;5067815;28;20434;-79
2021/01/28 07:47:00;;;;;;;5.10;4.17;;;5.50;99.90;;;;;;5048175;28;20423;-80
2021/01/28 07:49:32;;;;;;;6.53;4.57;;;5.50;99.90;;;;;;5072631;28;20524;-80
2021/01/28 07:52:00;;;;;;;6.47;4.50;;;5.50;99.90;;;;;;5032143;28;20832;-79
2021/01/28 07:54:26;;;;;;;7.00;4.10;;;5.60;99.90;;;;;;5064520;28;20476;-79
2021/01/28 07:57:09;;;;;;;5.10;4.00;;;5.60;99.90;;;;;;5071984;28;20455;-80
2021/01/28 07:59:56;;;;;;;3.93;3.40;;;5.40;99.90;;;;;;5047902;28;20201;-80
2021/01/28 08:02:37;;;;;;;3.87;2.93;;;5.40;99.90;;;;;;5066056;28;20397;-80
2021/01/28 08:05:10;;;;;;;5.43;3.77;;;5.60;99.90;;;;;;5071580;28;20419;-80
2021/01/28 08:07:43;;;;;;;4.80;3.93;;;5.70;99.90;;;;;;5070419;28;20458;-79
2021/01/28 08:10:26;;;;;;;4.40;3.40;;;5.70;99.90;;;;;;5072023;28;20469;-80
2021/01/28 08:13:07;;;;;;;4.83;3.50;;;5.60;99.90;;;;;;5071457;28;20423;-81
2021/01/28 08:15:38;;;;;;;4.00;3.07;;;5.60;99.90;;;;;;5073879;28;20528;-80
2021/01/28 08:18:20;;;;;;;4.80;3.47;;;5.30;99.90;;;;;;5072028;28;21004;-80
2021/01/28 08:20:47;;;;;;;4.67;3.77;;;5.50;99.90;;;;;;5066236;28;20779;-81
2021/01/28 08:23:25;;;;;;;5.27;3.50;;;5.50;99.90;;;;;;5070624;28;20432;-81
2021/01/28 08:26:01;;;;;;;4.17;3.23;;;5.40;99.90;;;;;;5070635;28;20423;-81
2021/01/28 08:28:30;;;;;;;4.40;3.47;;;5.30;99.90;;;;;;5057694;28;20454;-79
2021/01/28 08:31:19;;;;;;;4.40;3.47;;;5.50;99.90;;;;;;5056913;28;20416;-80
2021/01/28 08:33:54;;;;;;;5.10;3.13;;;5.50;99.90;;;;;;5061075;28;20435;-81
2021/01/28 08:36:22;;;;;;;3.43;2.67;;;5.50;99.90;;;;;;5077516;28;20419;-81
2021/01/28 08:38:50;;;;;;;5.47;3.93;;;5.50;99.90;;;;;;5055376;28;20467;-81
2021/01/28 08:41:27;;;;;;;5.07;2.87;;;5.40;99.90;;;;;;5068180;28;20908;-81
2021/01/28 08:44:01;;;;;;;3.83;2.80;;;5.50;99.90;;;;;;5055532;28;20428;-83
2021/01/28 08:46:27;;;;;;;4.23;3.53;;;5.20;99.90;;;;;;5069449;28;20444;-83
2021/01/28 08:49:05;;;;;;;4.07;3.67;;;5.30;99.90;;;;;;5072372;28;20806;-79
2021/01/28 08:51:34;;;;;;;3.87;3.20;;;5.30;99.90;;;;;;5067911;28;20419;-80
2021/01/28 08:54:02;;;;;;;5.73;4.20;;;5.60;99.90;;;;;;5069951;28;20434;-79
2021/01/28 08:56:38;;;;;;;3.67;3.13;;;5.50;99.90;;;;;;5077403;28;20537;-79
2021/01/28 08:59:12;;;;;;;3.90;3.17;;;5.40;99.90;;;;;;5072405;28;20940;-80
2021/01/28 09:01:57;;;;;;;4.50;3.43;;;5.50;99.90;;;;;;5077034;28;20402;-81
2021/01/28 09:04:35;;;;;;;5.77;3.13;;;5.60;99.90;;;;;;5076588;28;20403;-80
2021/01/28 09:07:01;;;;;;;3.90;3.10;;;5.50;99.90;;;;;;5072427;28;20407;-80
2021/01/28 09:09:30;;;;;;;6.57;3.70;;;5.50;99.90;;;;;;5068392;28;20448;-80
2021/01/28 09:12:22;;;;;;;3.80;2.90;;;5.60;99.90;;;;;;5072438;28;20743;-80
2021/01/28 09:14:48;;;;;;;3.60;3.03;;;5.60;99.90;;;;;;5072811;28;20442;-81
2021/01/28 09:17:30;;;;;;;3.63;2.70;;;5.60;99.90;;;;;;5074240;28;20459;-81
2021/01/28 09:19:59;;;;;;;3.03;2.77;;;5.70;99.90;;;;;;5073779;28;20419;-81
2021/01/28 09:22:37;;;;;;;3.80;2.90;;;5.80;99.90;;;;;;5073175;28;20761;-81
2021/01/28 09:25:22;;;;;;;4.13;2.83;;;5.80;99.90;;;;;;5048158;28;20432;-80
2021/01/28 09:28:11;;;;;;;3.83;2.73;;;5.60;99.90;;;;;;5071696;28;21041;-81
2021/01/28 09:30:45;;;;;;;3.50;2.60;;;5.80;99.90;;;;;;5073063;28;20920;-80
2021/01/28 09:33:37;;;;;;;3.40;3.10;;;5.70;99.90;;;;;;5067927;28;20437;-80
2021/01/28 09:36:11;;;;;;;3.20;2.40;;;5.70;99.90;;;;;;5074943;28;20920;-81
2021/01/28 09:38:38;;;;;;;2.60;2.40;;;5.80;99.90;;;;;;5069483;28;20514;-80
2021/01/28 09:41:24;;;;;;;2.87;2.40;;;5.70;99.90;;;;;;5047951;28;20424;-80
2021/01/28 09:43:50;;;;;;;3.30;2.30;;;5.80;99.90;;;;;;5053469;28;20839;-80
2021/01/28 09:46:18;;;;;;;2.33;2.13;;;5.70;99.90;;;;;;5074534;28;20424;-80
2021/01/28 09:48:49;;;;;;;2.20;1.90;;;5.80;99.90;;;;;;5073848;28;20212;-82
2021/01/28 09:51:24;;;;;;;2.60;2.30;;;5.70;99.90;;;;;;5075312;28;20487;-81
2021/01/28 09:54:03;;;;;;;2.93;2.17;;;5.70;99.90;;;;;;5071869;28;20461;-83
2021/01/28 09:56:29;;;;;;;2.23;2.00;;;5.90;99.90;;;;;;5074895;28;20419;-81
2021/01/28 09:58:55;;;;;;;2.27;2.00;;;5.90;99.90;;;;;;5056315;28;20548;-81
2021/01/28 10:01:21;;;;;;;2.10;1.90;;;6.00;99.90;;;;;;5073138;28;20750;-82
2021/01/28 10:03:47;;;;;;;2.43;2.10;;;6.00;99.90;;;;;;5073545;28;20427;-81
2021/01/28 10:06:12;;;;;;;2.53;1.87;;;5.90;99.90;;;;;;5076142;28;20189;-80
2021/01/28 10:08:38;;;;;;;2.53;2.33;;;6.00;99.90;;;;;;5073707;28;20219;-81
2021/01/28 10:11:04;;;;;;;5.30;2.80;;;6.00;99.90;;;;;;5045755;28;20397;-82
2021/01/28 10:13:30;;;;;;;2.67;2.43;;;5.90;99.90;;;;;;5030433;28;20703;-81
2021/01/28 10:15:55;;;;;;;2.30;1.90;;;6.00;99.90;;;;;;5073965;28;20270;-83
2021/01/28 10:18:21;;;;;;;3.33;2.70;;;6.10;99.90;;;;;;5057127;28;20601;-81
2021/01/28 10:20:47;;;;;;;3.33;2.77;;;5.80;99.90;;;;;;5075880;28;20509;-81
2021/01/28 10:23:14;;;;;;;3.10;2.60;;;5.70;99.90;;;;;;5054199;28;20493;-80
2021/01/28 10:25:40;;;;;;;4.00;2.80;;;5.90;99.90;;;;;;5049401;28;20186;-81
2021/01/28 10:28:06;;;;;;;3.30;3.00;;;5.80;99.90;;;;;;5073937;28;21026;-81
2021/01/28 10:30:31;;;;;;;3.60;3.00;;;6.10;99.90;;;;;;5076587;28;20238;-82
2021/01/28 10:32:59;;;;;;;5.50;2.90;;;6.10;99.90;;;;;;5060457;28;20427;-81
2021/01/28 10:35:28;;;;;;;3.80;2.73;;;6.00;99.90;;;;;;5068323;28;20401;-82
2021/01/28 10:37:54;;;;;;;5.40;3.17;;;5.90;99.90;;;;;;5058616;28;20463;-83
2021/01/28 10:40:20;;;;;;;4.97;3.70;;;6.10;99.90;;;;;;5070868;28;20446;-82
2021/01/28 10:42:47;;;;;;;4.03;3.00;;;5.90;99.90;;;;;;5068488;28;20443;-80
2021/01/28 10:45:19;;;;;;;3.47;2.37;;;6.20;99.90;;;;;;5074739;28;20420;-82
2021/01/28 10:47:44;;;;;;;2.80;2.60;;;6.10;99.90;;;;;;5063365;28;20446;-83
2021/01/28 10:50:11;;;;;;;4.03;2.83;;;6.00;99.90;;;;;;5058634;28;20427;-82
2021/01/28 10:52:36;;;;;;;3.67;2.53;;;6.00;99.90;;;;;;5042487;28;20200;-81
2021/01/28 10:55:05;;;;;;;2.93;2.63;;;6.20;99.90;;;;;;5074486;28;20435;-82
2021/01/28 10:57:31;;;;;;;3.30;3.00;;;5.90;99.90;;;;;;5042518;28;20294;-82
2021/01/28 10:59:57;;;;;;;6.73;3.17;;;6.20;99.90;;;;;;5074193;28;20423;-83
2021/01/28 11:02:22;;;;;;;4.60;3.73;;;6.00;99.90;;;;;;5078176;28;20422;-81
2021/01/28 11:04:48;;;;;;;3.47;3.10;;;6.10;99.90;;;;;;5079296;28;20211;-80
2021/01/28 11:07:14;;;;;;;4.70;3.80;;;6.00;99.90;;;;;;5081007;28;20188;-81
2021/01/28 11:09:39;;;;;;;5.03;3.40;;;6.20;99.90;;;;;;5063644;28;20224;-81
2021/01/28 11:12:05;;;;;;;4.30;3.30;;;6.20;99.90;;;;;;5068824;28;20763;-82
2021/01/28 11:14:32;;;;;;;4.23;3.80;;;6.10;99.90;;;;;;5080583;28;20287;-81
2021/01/28 11:16:57;;;;;;;4.87;3.70;;;6.20;99.90;;;;;;5062545;28;20471;-83
2021/01/28 11:19:23;;;;;;;4.60;3.67;;;6.00;99.90;;;;;;5042001;28;20440;-82
2021/01/28 11:21:49;;;;;;;4.80;3.57;;;6.00;99.90;;;;;;5056696;28;20636;-81
2021/01/28 11:24:14;;;;;;;5.10;3.80;;;6.10;99.90;;;;;;5043627;28;20193;-81
2021/01/28 11:26:40;;;;;;;5.87;4.30;;;6.20;99.90;;;;;;5064761;28;20193;-83
2021/01/28 11:29:06;;;;;;;3.93;3.63;;;6.20;99.90;;;;;;5034316;28;20193;-84
2021/01/28 11:31:34;;;;;;;4.63;3.20;;;6.30;99.90;;;;;;5081008;28;20186;-83
2021/01/28 11:34:00;;;;;;;3.50;3.10;;;6.40;99.90;;;;;;5064939;28;20426;-83
2021/01/28 11:36:26;;;;;;;4.63;3.70;;;6.30;99.90;;;;;;5071028;28;20469;-82
2021/01/28 11:38:51;;;;;;;4.43;3.37;;;6.10;99.90;;;;;;5035004;28;20231;-83
2021/01/28 11:41:17;;;;;;;3.90;3.37;;;6.30;99.90;;;;;;5051971;28;20280;-83
2021/01/28 11:43:42;;;;;;;3.17;2.83;;;6.00;99.90;;;;;;5068337;28;20196;-84
2021/01/28 11:46:08;;;;;;;5.77;3.23;;;6.10;99.90;;;;;;5035051;28;20205;-84
2021/01/28 11:48:34;;;;;;;3.40;2.90;;;6.30;99.90;;;;;;5066523;28;20209;-84
2021/01/28 11:50:59;;;;;;;5.50;3.90;;;6.30;99.90;;;;;;5055096;28;20193;-82
2021/01/28 11:53:25;;;;;;;3.87;3.23;;;6.20;99.90;;;;;;5073653;28;20196;-85
2021/01/28 11:55:51;;;;;;;3.60;3.30;;;6.10;99.90;;;;;;5054798;28;20595;-84
2021/01/28 11:58:19;;;;;;;3.63;3.27;;;6.00;99.90;;;;;;5051145;28;20375;-83
2021/01/28 12:00:45;;;;;;;5.63;3.40;;;6.10;99.90;;;;;;5035825;28;20276;-83
2021/01/28 12:03:11;;;;;;;4.70;4.10;;;6.30;99.90;;;;;;5051009;28;20574;-84
2021/01/28 12:05:36;;;;;;;4.20;3.63;;;6.00;99.90;;;;;;5074576;28;20452;-84
2021/01/28 12:08:02;;;;;;;4.27;3.67;;;6.10;99.90;;;;;;5056549;28;20205;-83
2021/01/28 12:10:31;;;;;;;4.20;3.43;;;6.00;99.90;;;;;;5058646;28;20276;-84
2021/01/28 12:12:57;;;;;;;5.40;3.53;;;6.00;99.90;;;;;;5051720;28;20431;-84
2021/01/28 12:15:23;;;;;;;7.17;4.37;;;6.20;99.90;;;;;;5090408;28;20427;-83
2021/01/28 12:17:50;;;;;;;6.67;3.57;;;6.20;99.90;;;;;;5095455;28;20256;-83
2021/01/28 12:20:19;;;;;;;4.53;3.60;;;6.00;99.90;;;;;;5085567;28;20635;-81
2021/01/28 12:22:44;;;;;;;3.47;3.17;;;5.80;99.90;;;;;;5082761;28;20415;-82
2021/01/28 12:25:10;;;;;;;4.03;3.47;;;5.90;99.90;;;;;;5089828;28;20391;-82
2021/01/28 12:27:36;;;;;;;3.00;2.73;;;6.00;99.90;;;;;;5050178;28;20257;-84
2021/01/28 12:30:06;;;;;;;3.53;3.23;;;6.10;99.90;;;;;;5079634;28;20418;-81
2021/01/28 12:32:31;;;;;;;5.13;3.03;;;5.90;99.90;;;;;;5052406;28;20264;-85
2021/01/28 12:34:57;;;;;;;4.07;3.67;;;6.20;99.90;;;;;;5069660;28;21206;-80
2021/01/28 12:37:23;;;;;;;3.50;3.20;;;6.20;99.90;;;;;;5068977;28;20209;-82
2021/01/28 12:39:49;;;;;;;3.90;3.43;;;5.90;99.90;;;;;;5052308;28;20329;-80
2021/01/28 12:42:14;;;;;;;2.90;2.60;;;6.10;99.90;;;;;;5051786;28;20897;-81
2021/01/28 12:44:41;;;;;;;4.30;3.00;;;6.00;99.90;;;;;;5052187;28;20185;-81
2021/01/28 12:47:06;;;;;;;3.20;2.90;;;5.90;99.90;;;;;;5064168;28;20185;-82
2021/01/28 12:49:32;;;;;;;7.00;2.80;;;6.10;99.90;;;;;;5069087;28;20446;-84
2021/01/28 12:51:58;;;;;;;3.73;3.37;;;6.20;99.90;;;;;;5050558;28;20193;-81
2021/01/28 12:54:24;;;;;;;3.17;2.87;;;6.20;99.90;;;;;;5070150;28;20189;-81
2021/01/28 12:56:50;;;;;;;3.23;2.87;;;6.10;99.90;;;;;;5068631;28;20704;-81
2021/01/28 12:59:17;;;;;;;3.27;2.90;;;6.20;99.90;;;;;;5046841;28;20205;-81
2021/01/28 13:01:42;;;;;;;3.27;2.80;;;6.30;99.90;;;;;;5034069;28;20782;-81
2021/01/28 13:04:08;;;;;;;2.50;2.13;;;6.20;99.90;;;;;;5068762;28;20418;-81
2021/01/28 13:06:34;;;;;;;3.10;2.83;;;6.20;99.90;;;;;;5033731;28;20220;-81